Pagina principale
METAR-TAF:

METAR-TAF

Aeroporti :

Amman, Giordania

latitudine: 31-59N, longitudine: 035-59E, altezza: 767 m

Osservazione

Il bollettino è stato emesso 55 minuti fa, alle 02:00 UTC
Vento calmo
Temperature 6°C
Umidità 65%
Pressione 1014 hPa
Visibilità: 5000 m
foschia

METAR: OJAM 240200Z 00000KT 5000 HZ NSC 06/00 Q1014 NOSIG

Ora: 04:55 (02:55 UTC)

Previsione

Il bollettino è stato emesso 4 ore e 5 minuti fa, alle 22:50 UTC
Previsione valida dal 24 alle 00 UTC al 25 alle 06 UTC
Vento 8 kt da sud-est
Visibilità: 6000 m
Probabilità 30%
dal 24 alle 02 UTC al 24 alle 06 UTC
Visibilità: 3000 m
fumo
Probabilità 40%
dal 24 alle 12 UTC al 24 alle 20 UTC
Visibilità: 3000 m
Scaccia polvere alto

TAF: OJAM 232250Z 2400/2506 13008KT 6000 NSC PROB30 2402/2406 3000 FU PROB40 2412/2420 3000 BLDU

Osservazioni e previsioni meteorologiche di più di 4000 aeroporti (messaggi METAR e TAF).

Le stazioni disponibili sono rappresentate dai dischi gialli e rossi sulla carta.

Puntare il mouse per vedere il nome della stazione.

Clicca sopra per visualizzare le osservazioni e previsioni meteorologiche.

Per cambiare la mappa : fare clic sui pulsanti verdi con una croce nera per ingrandire, il pulsante verde con un trattino per diminuire, o sulla freccia verde per le mappe adiacenti.


METAR-TAF: